createdAt,value
2022-09-10T00:02:04.702Z,99.90
2022-09-10T00:05:07.922Z,99.90
2022-09-10T00:08:11.306Z,99.90
2022-09-10T00:11:15.220Z,99.80
2022-09-10T00:14:21.835Z,99.90
2022-09-10T00:17:24.442Z,99.90
2022-09-10T00:20:27.455Z,99.90
2022-09-10T00:23:29.884Z,99.90
2022-09-10T00:26:38.298Z,99.90
2022-09-10T00:29:40.392Z,99.90
2022-09-10T00:32:42.724Z,99.90
2022-09-10T00:35:46.023Z,99.90
2022-09-10T00:38:50.654Z,99.90
2022-09-10T00:41:55.224Z,99.90
2022-09-10T00:45:00.469Z,99.90
2022-09-10T00:48:30.410Z,99.90
2022-09-10T00:51:35.889Z,99.90
2022-09-10T00:54:39.915Z,99.90
2022-09-10T00:57:43.448Z,99.90
2022-09-10T01:00:46.070Z,99.90
2022-09-10T01:03:50.789Z,99.90
2022-09-10T01:06:53.376Z,99.90
2022-09-10T01:09:59.413Z,99.90
2022-09-10T01:13:11.274Z,99.90
2022-09-10T01:16:39.487Z,99.90
2022-09-10T01:20:10.676Z,99.90
2022-09-10T01:23:17.775Z,99.90
2022-09-10T01:26:57.019Z,99.90
2022-09-10T01:30:03.605Z,99.90
2022-09-10T01:33:24.037Z,99.90
2022-09-10T01:36:31.617Z,99.90
2022-09-10T01:39:34.343Z,99.90
2022-09-10T01:42:39.867Z,99.90
2022-09-10T01:46:00.304Z,99.90
2022-09-10T01:49:31.430Z,99.90
2022-09-10T01:52:52.448Z,99.90
2022-09-10T01:56:00.549Z,99.90
2022-09-10T01:59:34.870Z,99.90
2022-09-10T02:02:44.440Z,99.90
2022-09-10T02:05:50.311Z,99.90
2022-09-10T02:08:53.769Z,99.90
2022-09-10T02:11:56.837Z,99.90
2022-09-10T02:14:59.044Z,99.90
2022-09-10T02:18:01.995Z,99.90
2022-09-10T02:21:04.420Z,99.90
2022-09-10T02:24:10.170Z,99.90
2022-09-10T02:27:13.230Z,99.90
2022-09-10T02:30:17.079Z,99.90
2022-09-10T02:33:19.619Z,99.90
2022-09-10T02:36:26.079Z,99.90
2022-09-10T02:39:29.759Z,99.90
2022-09-10T02:42:32.601Z,99.90
2022-09-10T02:45:34.821Z,99.90
2022-09-10T02:48:37.464Z,99.90
2022-09-10T02:51:41.054Z,99.90
2022-09-10T02:54:43.200Z,99.90
2022-09-10T02:57:45.632Z,99.90
2022-09-10T03:00:47.713Z,99.90
2022-09-10T03:03:54.055Z,99.90
2022-09-10T03:06:56.118Z,99.90
2022-09-10T03:09:58.225Z,99.90
2022-09-10T03:13:00.986Z,99.90
2022-09-10T03:16:04.383Z,99.90
2022-09-10T03:19:06.659Z,99.90
2022-09-10T03:22:08.772Z,99.90
2022-09-10T03:25:11.866Z,99.90
2022-09-10T03:28:14.013Z,99.90
2022-09-10T03:31:18.347Z,99.90
2022-09-10T03:34:21.154Z,99.90
2022-09-10T03:37:24.296Z,99.90
2022-09-10T03:40:26.579Z,99.90
2022-09-10T03:43:28.869Z,99.90
2022-09-10T03:46:31.466Z,99.90
2022-09-10T03:49:33.593Z,99.90
2022-09-10T03:52:35.930Z,99.90
2022-09-10T03:55:38.394Z,99.90
2022-09-10T03:58:40.792Z,99.90
2022-09-10T04:01:43.885Z,99.90
2022-09-10T04:04:47.071Z,99.90
2022-09-10T04:07:49.142Z,99.90
2022-09-10T04:10:51.356Z,99.90
2022-09-10T04:13:54.421Z,99.90
2022-09-10T04:16:59.153Z,99.90
2022-09-10T04:20:01.256Z,99.90
2022-09-10T04:23:03.530Z,99.90
2022-09-10T04:26:17.862Z,99.90
2022-09-10T04:29:20.241Z,99.90
2022-09-10T04:32:22.576Z,99.90
2022-09-10T04:35:26.130Z,99.90
2022-09-10T04:38:30.636Z,99.90
2022-09-10T04:41:33.019Z,99.90
2022-09-10T04:44:35.088Z,99.90
2022-09-10T04:47:38.076Z,99.90
2022-09-10T04:50:53.984Z,99.90
2022-09-10T04:54:03.194Z,99.90
2022-09-10T04:57:07.007Z,99.90
2022-09-10T05:00:10.713Z,99.90
2022-09-10T05:03:14.829Z,99.90
2022-09-10T05:06:17.850Z,99.90
2022-09-10T05:09:21.182Z,99.90
2022-09-10T05:12:23.775Z,99.90
2022-09-10T05:15:26.063Z,99.90
2022-09-10T05:18:28.458Z,99.90
2022-09-10T05:21:31.350Z,99.90
2022-09-10T05:24:34.600Z,99.90
2022-09-10T05:27:37.905Z,99.90
2022-09-10T05:30:40.195Z,99.90
2022-09-10T05:33:42.418Z,99.90
2022-09-10T05:36:44.693Z,99.90
2022-09-10T05:39:48.663Z,99.90
2022-09-10T05:42:51.146Z,99.90
2022-09-10T05:45:53.668Z,99.90
2022-09-10T05:48:55.970Z,99.90
2022-09-10T05:51:58.370Z,99.90
2022-09-10T05:55:00.726Z,99.90
2022-09-10T05:58:03.209Z,99.90
2022-09-10T06:01:05.472Z,99.90
2022-09-10T06:04:07.713Z,99.90
2022-09-10T06:07:10.694Z,99.90
2022-09-10T06:10:13.095Z,99.90
2022-09-10T06:13:15.463Z,99.90
2022-09-10T06:16:18.043Z,99.90
2022-09-10T06:19:20.320Z,99.90
2022-09-10T06:22:23.804Z,99.90
2022-09-10T06:25:25.847Z,99.90
2022-09-10T06:28:28.769Z,99.90
2022-09-10T06:31:31.169Z,99.90
2022-09-10T06:34:35.945Z,99.90
2022-09-10T06:37:38.065Z,99.90
2022-09-10T06:40:59.384Z,99.90
2022-09-10T06:44:01.677Z,99.90
2022-09-10T06:47:45.954Z,99.90
2022-09-10T06:50:26.824Z,99.90
2022-09-10T06:53:29.979Z,99.90
2022-09-10T06:56:32.343Z,99.90
2022-09-10T06:59:34.903Z,99.90
2022-09-10T07:02:37.167Z,99.00
2022-09-10T07:05:39.172Z,98.10
2022-09-10T07:08:42.090Z,96.80
2022-09-10T07:11:44.179Z,96.10
2022-09-10T07:14:47.086Z,95.50
2022-09-10T07:17:58.138Z,94.90
2022-09-10T07:21:15.429Z,92.90
2022-09-10T07:24:18.302Z,91.80
2022-09-10T07:27:20.584Z,91.70
2022-09-10T07:30:22.721Z,90.40
2022-09-10T07:33:25.033Z,90.00
2022-09-10T07:36:29.045Z,87.20
2022-09-10T07:39:31.593Z,86.80
2022-09-10T07:42:35.895Z,84.90
2022-09-10T07:45:38.142Z,82.90
2022-09-10T07:48:41.739Z,80.90
2022-09-10T07:51:44.112Z,82.50
2022-09-10T07:54:46.340Z,78.80
2022-09-10T07:57:48.829Z,80.20
2022-09-10T08:00:50.887Z,74.40
2022-09-10T08:03:57.204Z,74.80
2022-09-10T08:06:59.355Z,70.40
2022-09-10T08:10:01.535Z,69.30
2022-09-10T08:13:04.143Z,68.20
2022-09-10T08:16:19.300Z,68.10
2022-09-10T08:19:21.776Z,64.40
2022-09-10T08:22:24.528Z,65.00
2022-09-10T08:25:26.696Z,61.40
2022-09-10T08:28:28.942Z,63.80
2022-09-10T08:31:31.104Z,60.00
2022-09-10T08:34:34.471Z,58.30
2022-09-10T08:37:38.200Z,60.30
2022-09-10T08:40:43.574Z,61.90
2022-09-10T08:44:03.784Z,63.00
2022-09-10T08:47:21.418Z,60.00
2022-09-10T08:51:23.942Z,57.90
2022-09-10T08:54:38.072Z,56.80
2022-09-10T08:57:54.509Z,54.80
2022-09-10T09:01:02.229Z,57.30
2022-09-10T09:04:16.944Z,56.10
2022-09-10T09:07:20.789Z,55.90
2022-09-10T09:11:11.388Z,58.20
2022-09-10T09:14:19.496Z,54.40
2022-09-10T09:17:27.770Z,54.30
2022-09-10T09:20:49.218Z,50.10
2022-09-10T09:24:12.698Z,49.40
2022-09-10T09:27:18.653Z,51.40
2022-09-10T09:30:28.538Z,55.00
2022-09-10T09:33:31.505Z,53.20
2022-09-10T09:36:40.257Z,55.40
2022-09-10T09:39:53.838Z,52.90
2022-09-10T09:43:02.386Z,55.40
2022-09-10T09:46:07.785Z,55.60
2022-09-10T09:49:16.941Z,54.60
2022-09-10T09:52:22.665Z,55.90
2022-09-10T09:55:40.471Z,54.40
2022-09-10T09:58:49.560Z,55.40
2022-09-10T10:01:52.001Z,53.50
2022-09-10T10:05:07.414Z,52.20
2022-09-10T10:08:31.114Z,52.50
2022-09-10T10:11:47.411Z,48.70
2022-09-10T10:14:50.157Z,45.20
2022-09-10T10:17:53.423Z,46.00
2022-09-10T10:21:30.860Z,45.90
2022-09-10T10:24:34.345Z,47.60
2022-09-10T10:27:41.935Z,47.20
2022-09-10T10:30:44.890Z,45.60
2022-09-10T10:34:06.052Z,46.50
2022-09-10T10:37:21.409Z,45.90
2022-09-10T10:40:36.946Z,42.70
2022-09-10T10:43:51.191Z,44.80
2022-09-10T10:47:37.872Z,44.10
2022-09-10T10:51:12.733Z,43.00
2022-09-10T10:54:37.691Z,43.10
2022-09-10T10:57:59.087Z,44.80
2022-09-10T11:01:16.194Z,46.10
2022-09-10T11:04:41.245Z,47.00
2022-09-10T11:07:44.855Z,45.70
2022-09-10T11:10:54.814Z,47.80
2022-09-10T11:14:12.965Z,46.20
2022-09-10T11:17:40.382Z,47.00
2022-09-10T11:21:00.454Z,49.50
2022-09-10T11:24:05.973Z,52.60
2022-09-10T11:27:27.760Z,51.90
2022-09-10T11:30:33.714Z,49.60
2022-09-10T11:33:51.464Z,49.40
2022-09-10T11:37:04.794Z,49.00
2022-09-10T11:40:18.024Z,51.40
2022-09-10T11:43:26.170Z,53.50
2022-09-10T11:46:34.433Z,57.80
2022-09-10T11:49:48.496Z,60.30
2022-09-10T11:52:51.510Z,61.50
2022-09-10T11:55:59.970Z,63.10
2022-09-10T11:59:18.370Z,64.10
2022-09-10T12:02:39.073Z,65.70
2022-09-10T12:06:02.614Z,67.50
2022-09-10T12:09:36.123Z,67.50
2022-09-10T12:12:43.793Z,67.40
2022-09-10T12:15:56.255Z,68.00
2022-09-10T12:19:00.095Z,68.60
2022-09-10T12:22:09.544Z,68.50
2022-09-10T12:25:18.648Z,68.80
2022-09-10T12:28:42.520Z,69.70
2022-09-10T12:32:09.908Z,70.60
2022-09-10T12:35:34.463Z,69.40
2022-09-10T12:39:07.149Z,69.20
2022-09-10T12:42:29.383Z,69.50
2022-09-10T12:46:04.405Z,70.10
2022-09-10T12:49:12.476Z,69.70
2022-09-10T12:52:51.091Z,70.00
2022-09-10T12:56:24.087Z,69.80
2022-09-10T12:59:51.385Z,70.10
2022-09-10T13:03:00.889Z,69.60
2022-09-10T13:06:07.249Z,69.60
2022-09-10T13:09:23.682Z,69.50
2022-09-10T13:12:26.957Z,69.40
2022-09-10T13:15:38.764Z,69.30
2022-09-10T13:18:42.152Z,69.60
2022-09-10T13:21:44.497Z,69.30
2022-09-10T13:25:24.144Z,70.20
2022-09-10T13:28:29.550Z,70.20
2022-09-10T13:31:35.840Z,70.20
2022-09-10T13:34:41.045Z,70.40
2022-09-10T13:38:13.646Z,70.30
2022-09-10T13:41:37.188Z,70.70
2022-09-10T13:45:21.049Z,72.10
2022-09-10T13:48:27.749Z,71.70
2022-09-10T13:51:41.741Z,70.20
2022-09-10T13:54:51.606Z,69.70
2022-09-10T13:58:17.170Z,69.70
2022-09-10T14:01:19.534Z,69.40
2022-09-10T14:04:33.124Z,69.00
2022-09-10T14:07:35.557Z,68.90
2022-09-10T14:10:53.862Z,68.50
2022-09-10T14:14:37.942Z,68.80
2022-09-10T14:17:46.125Z,68.10
2022-09-10T14:20:49.424Z,68.80
2022-09-10T14:23:51.694Z,68.80
2022-09-10T14:27:16.470Z,68.90
2022-09-10T14:30:24.750Z,68.50
2022-09-10T14:33:35.720Z,68.20
2022-09-10T14:36:38.792Z,68.70
2022-09-10T14:39:44.513Z,69.10
2022-09-10T14:42:48.972Z,70.20
2022-09-10T14:45:52.056Z,69.60
2022-09-10T14:49:03.815Z,70.60
2022-09-10T14:52:06.798Z,70.90
2022-09-10T14:55:08.877Z,70.40
2022-09-10T14:58:11.915Z,70.00
2022-09-10T15:01:15.581Z,70.70
2022-09-10T15:04:23.774Z,69.80
2022-09-10T15:07:27.621Z,69.90
2022-09-10T15:10:29.608Z,70.60
2022-09-10T15:13:33.811Z,69.90
2022-09-10T15:16:37.083Z,69.60
2022-09-10T15:19:39.163Z,69.90
2022-09-10T15:22:41.454Z,69.50
2022-09-10T15:25:50.915Z,69.00
2022-09-10T15:28:53.022Z,68.60
2022-09-10T15:31:59.579Z,69.20
2022-09-10T15:35:01.736Z,69.10
2022-09-10T15:38:03.821Z,69.10
2022-09-10T15:41:12.863Z,69.40
2022-09-10T15:44:15.445Z,69.20
2022-09-10T15:47:17.843Z,69.20
2022-09-10T15:50:20.157Z,69.40
2022-09-10T15:53:22.295Z,70.40
2022-09-10T15:56:26.755Z,70.20
2022-09-10T15:59:28.843Z,70.60
2022-09-10T16:02:30.951Z,70.90
2022-09-10T16:05:35.664Z,71.30
2022-09-10T16:08:37.805Z,71.30
2022-09-10T16:11:41.643Z,71.30
2022-09-10T16:14:45.413Z,71.10
2022-09-10T16:17:47.494Z,71.40
2022-09-10T16:20:49.678Z,71.90
2022-09-10T16:23:54.178Z,72.10
2022-09-10T16:26:56.277Z,71.90
2022-09-10T16:29:58.353Z,71.80
2022-09-10T16:33:01.104Z,72.30
2022-09-10T16:36:07.115Z,72.40
2022-09-10T16:39:12.578Z,73.40
2022-09-10T16:42:14.958Z,73.30
2022-09-10T16:45:17.097Z,73.50
2022-09-10T16:48:19.208Z,73.40
2022-09-10T16:51:26.366Z,73.40
2022-09-10T16:54:30.303Z,73.30
2022-09-10T16:57:32.358Z,73.70
2022-09-10T17:00:34.660Z,73.70
2022-09-10T17:03:41.509Z,73.40
2022-09-10T17:06:44.059Z,73.70
2022-09-10T17:09:46.118Z,73.50
2022-09-10T17:12:48.323Z,73.60
2022-09-10T17:15:50.879Z,73.80
2022-09-10T17:18:58.497Z,73.80
2022-09-10T17:22:00.830Z,73.70
2022-09-10T17:25:02.955Z,73.80
2022-09-10T17:28:05.579Z,74.10
2022-09-10T17:31:07.743Z,74.20
2022-09-10T17:34:14.146Z,74.30
2022-09-10T17:37:16.345Z,74.30
2022-09-10T17:40:20.221Z,74.40
2022-09-10T17:43:26.753Z,74.20
2022-09-10T17:46:31.345Z,74.40
2022-09-10T17:49:33.595Z,74.30
2022-09-10T17:52:35.851Z,74.80
2022-09-10T17:55:38.022Z,74.90
2022-09-10T17:58:40.904Z,75.30
2022-09-10T18:01:46.320Z,75.50
2022-09-10T18:04:51.548Z,76.30
2022-09-10T18:07:53.808Z,75.50
2022-09-10T18:11:07.232Z,75.80
2022-09-10T18:14:17.732Z,76.30
2022-09-10T18:17:19.786Z,76.40
2022-09-10T18:20:23.245Z,76.60
2022-09-10T18:23:25.499Z,77.10
2022-09-10T18:26:29.890Z,77.10
2022-09-10T18:29:32.518Z,77.60
2022-09-10T18:32:35.274Z,77.60
2022-09-10T18:35:37.414Z,77.60
2022-09-10T18:38:40.388Z,78.20
2022-09-10T18:41:43.567Z,78.80
2022-09-10T18:44:45.733Z,80.10
2022-09-10T18:47:48.285Z,80.80
2022-09-10T18:50:50.594Z,81.60
2022-09-10T18:53:58.445Z,82.20
2022-09-10T18:57:01.461Z,82.90
2022-09-10T19:00:05.149Z,83.70
2022-09-10T19:03:08.328Z,84.60
2022-09-10T19:06:15.375Z,85.90
2022-09-10T19:09:29.071Z,87.00
2022-09-10T19:12:31.165Z,88.70
2022-09-10T19:15:33.630Z,88.50
2022-09-10T19:18:36.541Z,89.30
2022-09-10T19:21:38.695Z,89.20
2022-09-10T19:24:56.403Z,90.10
2022-09-10T19:27:58.671Z,90.30
2022-09-10T19:31:05.288Z,90.70
2022-09-10T19:34:08.890Z,90.30
2022-09-10T19:37:11.387Z,91.10
2022-09-10T19:40:13.596Z,90.60
2022-09-10T19:43:16.558Z,91.10
2022-09-10T19:46:20.187Z,91.10
2022-09-10T19:49:22.422Z,91.60
2022-09-10T19:52:25.778Z,91.90
2022-09-10T19:55:27.906Z,92.30
2022-09-10T19:58:30.386Z,92.30
2022-09-10T20:01:35.708Z,92.30
2022-09-10T20:04:37.957Z,92.70
2022-09-10T20:07:40.072Z,92.90
2022-09-10T20:10:52.050Z,92.70
2022-09-10T20:13:57.894Z,92.90
2022-09-10T20:17:00.022Z,92.80
2022-09-10T20:20:06.038Z,92.90
2022-09-10T20:23:08.428Z,92.80
2022-09-10T20:26:21.560Z,92.90
2022-09-10T20:29:25.485Z,93.20
2022-09-10T20:32:27.776Z,93.40
2022-09-10T20:35:30.421Z,93.20
2022-09-10T20:38:33.818Z,93.10
2022-09-10T20:41:36.021Z,93.60
2022-09-10T20:44:39.077Z,93.50
2022-09-10T20:47:43.201Z,93.70
2022-09-10T20:50:52.945Z,94.00
2022-09-10T20:53:56.076Z,94.20
2022-09-10T20:57:01.057Z,94.60
2022-09-10T21:00:03.470Z,94.80
2022-09-10T21:03:05.513Z,95.30
2022-09-10T21:06:08.962Z,94.80
2022-09-10T21:09:14.410Z,95.00
2022-09-10T21:12:16.978Z,95.30
2022-09-10T21:15:19.082Z,95.70
2022-09-10T21:18:21.372Z,95.70
2022-09-10T21:21:28.076Z,95.80
2022-09-10T21:24:30.306Z,96.20
2022-09-10T21:27:33.691Z,95.80
2022-09-10T21:30:38.468Z,95.90
2022-09-10T21:33:42.608Z,96.00
2022-09-10T21:36:45.476Z,95.80
2022-09-10T21:39:47.804Z,96.10
2022-09-10T21:42:49.933Z,96.20
2022-09-10T21:45:52.429Z,96.00
2022-09-10T21:48:55.406Z,96.00
2022-09-10T21:51:57.921Z,95.80
2022-09-10T21:55:00.062Z,96.50
2022-09-10T21:58:02.227Z,96.50
2022-09-10T22:01:13.490Z,96.60
2022-09-10T22:04:21.470Z,96.60
2022-09-10T22:07:24.770Z,96.40
2022-09-10T22:10:29.330Z,96.70
2022-09-10T22:13:32.285Z,97.00
2022-09-10T22:16:35.370Z,97.40
2022-09-10T22:19:37.768Z,97.40
2022-09-10T22:22:39.934Z,97.40
2022-09-10T22:25:42.022Z,97.10
2022-09-10T22:28:44.858Z,97.10
2022-09-10T22:31:48.111Z,97.50
2022-09-10T22:34:50.218Z,97.60
2022-09-10T22:37:56.740Z,97.40
2022-09-10T22:41:03.573Z,97.50
2022-09-10T22:44:06.600Z,97.70
2022-09-10T22:47:08.670Z,98.00
2022-09-10T22:50:10.787Z,98.00
2022-09-10T22:53:14.715Z,98.20
2022-09-10T22:56:18.451Z,98.20
2022-09-10T22:59:20.558Z,98.30
2022-09-10T23:02:22.732Z,98.50
2022-09-10T23:05:24.806Z,98.60
2022-09-10T23:08:27.724Z,98.60
2022-09-10T23:11:31.380Z,98.80
2022-09-10T23:14:33.725Z,98.90
2022-09-10T23:17:35.826Z,98.80
2022-09-10T23:20:38.161Z,99.00
2022-09-10T23:23:46.342Z,98.90
2022-09-10T23:26:48.641Z,98.90
2022-09-10T23:29:50.876Z,98.70
2022-09-10T23:32:54.183Z,98.60
2022-09-10T23:35:56.233Z,98.40
2022-09-10T23:38:59.304Z,98.40
2022-09-10T23:42:03.973Z,98.30
2022-09-10T23:45:08.114Z,98.40
2022-09-10T23:48:10.354Z,98.40
2022-09-10T23:51:19.522Z,98.50
2022-09-10T23:54:21.929Z,98.60
2022-09-10T23:57:24.509Z,98.40
